createdAt,value
2019-05-21T00:00:11.349Z,30.40
2019-05-21T00:02:39.803Z,37.78
2019-05-21T00:05:08.638Z,32.93
2019-05-21T00:07:37.067Z,36.50
2019-05-21T00:10:08.753Z,41.02
2019-05-21T00:12:37.200Z,33.28
2019-05-21T00:15:06.744Z,31.33
2019-05-21T00:17:35.186Z,32.25
2019-05-21T00:20:06.201Z,33.63
2019-05-21T00:22:35.121Z,36.85
2019-05-21T00:25:05.272Z,34.70
2019-05-21T00:27:33.965Z,33.10
2019-05-21T00:30:39.093Z,34.65
2019-05-21T00:33:44.171Z,34.38
2019-05-21T00:36:49.676Z,35.83
2019-05-21T00:39:54.695Z,32.30
2019-05-21T00:42:32.081Z,33.00
2019-05-21T00:45:01.004Z,35.63
2019-05-21T00:47:29.788Z,36.30
2019-05-21T00:49:58.221Z,33.60
2019-05-21T00:52:26.697Z,34.58
2019-05-21T00:54:55.341Z,34.27
2019-05-21T00:57:24.013Z,34.58
2019-05-21T00:59:52.726Z,35.23
2019-05-21T01:02:21.183Z,32.93
2019-05-21T01:05:00.082Z,37.28
2019-05-21T01:07:20.259Z,32.78
2019-05-21T01:09:48.704Z,39.65
2019-05-21T01:12:17.150Z,35.83
2019-05-21T01:14:45.584Z,36.30
2019-05-21T01:17:14.037Z,37.33
2019-05-21T01:19:42.466Z,35.83
2019-05-21T01:22:10.941Z,33.70
2019-05-21T01:24:39.680Z,34.43
2019-05-21T01:27:08.133Z,37.33
2019-05-21T01:29:36.814Z,34.60
2019-05-21T01:32:05.261Z,34.23
2019-05-21T01:34:33.964Z,43.28
2019-05-21T01:37:02.758Z,41.15
2019-05-21T01:39:31.177Z,40.98
2019-05-21T01:41:59.629Z,39.25
2019-05-21T01:44:28.100Z,46.88
2019-05-21T01:46:56.551Z,41.00
2019-05-21T01:49:24.998Z,36.60
2019-05-21T01:51:53.499Z,39.15
2019-05-21T01:54:21.920Z,41.13
2019-05-21T01:56:50.385Z,39.48
2019-05-21T01:59:19.073Z,37.98
2019-05-21T02:01:47.520Z,44.05
2019-05-21T02:04:16.192Z,38.38
2019-05-21T02:06:45.380Z,39.42
2019-05-21T02:09:13.833Z,41.85
2019-05-21T02:11:42.603Z,40.58
2019-05-21T02:14:11.052Z,43.35
2019-05-21T02:16:39.488Z,38.05
2019-05-21T02:19:07.947Z,40.63
2019-05-21T02:21:36.388Z,48.23
2019-05-21T02:24:05.030Z,41.98
2019-05-21T02:26:33.798Z,44.80
2019-05-21T02:29:02.568Z,46.83
2019-05-21T02:31:31.149Z,45.23
2019-05-21T02:33:59.586Z,45.35
2019-05-21T02:36:28.070Z,44.25
2019-05-21T02:38:56.513Z,43.85
2019-05-21T02:41:24.944Z,50.67
2019-05-21T02:43:53.388Z,42.05
2019-05-21T02:46:21.812Z,42.62
2019-05-21T02:48:50.271Z,39.80
2019-05-21T02:51:18.949Z,42.67
2019-05-21T02:53:47.625Z,43.65
2019-05-21T02:56:16.071Z,44.63
2019-05-21T02:58:44.506Z,43.48
2019-05-21T03:01:20.395Z,47.45
2019-05-21T03:03:48.855Z,51.33
2019-05-21T03:06:17.543Z,49.48
2019-05-21T03:08:45.968Z,48.70
2019-05-21T03:11:14.406Z,53.95
2019-05-21T03:13:42.846Z,50.33
2019-05-21T03:16:11.282Z,49.38
2019-05-21T03:18:39.722Z,45.67
2019-05-21T03:21:08.143Z,55.85
2019-05-21T03:23:36.596Z,52.53
2019-05-21T03:26:05.269Z,53.23
2019-05-21T03:28:33.716Z,56.20
2019-05-21T03:31:02.437Z,52.55
2019-05-21T03:33:31.245Z,55.12
2019-05-21T03:35:59.744Z,53.20
2019-05-21T03:38:28.434Z,55.83
2019-05-21T03:40:56.861Z,53.85
2019-05-21T03:43:25.300Z,47.98
2019-05-21T03:45:56.547Z,49.00
2019-05-21T03:48:25.007Z,46.92
2019-05-21T03:50:53.537Z,52.27
2019-05-21T03:53:22.078Z,59.73
2019-05-21T03:55:50.615Z,50.85
2019-05-21T03:58:19.339Z,60.80
2019-05-21T04:00:47.854Z,53.55
2019-05-21T04:03:16.813Z,55.00
2019-05-21T04:05:45.414Z,49.63
2019-05-21T04:08:14.127Z,51.75
2019-05-21T04:10:42.995Z,50.17
2019-05-21T04:13:11.572Z,51.98
2019-05-21T04:15:46.015Z,52.17
2019-05-21T04:18:16.194Z,59.45
2019-05-21T04:20:44.893Z,50.12
2019-05-21T04:23:13.416Z,58.48
2019-05-21T04:25:41.866Z,64.50
2019-05-21T04:28:10.363Z,56.50
2019-05-21T04:30:38.808Z,47.67
2019-05-21T04:33:07.323Z,36.95
2019-05-21T04:35:36.207Z,38.38
2019-05-21T04:38:04.744Z,34.30
2019-05-21T04:40:33.446Z,31.90
2019-05-21T04:43:02.681Z,28.38
2019-05-21T04:45:31.394Z,28.98
2019-05-21T04:47:59.834Z,30.27
2019-05-21T04:50:28.296Z,32.50
2019-05-21T04:52:57.087Z,33.75
2019-05-21T04:55:25.543Z,41.35
2019-05-21T04:57:54.007Z,28.98
2019-05-21T05:00:22.471Z,33.55
2019-05-21T05:02:50.936Z,30.30
2019-05-21T05:05:19.456Z,31.00
2019-05-21T05:07:47.916Z,28.80
2019-05-21T05:10:16.441Z,33.10
2019-05-21T05:12:44.904Z,33.02
2019-05-21T05:15:14.052Z,32.45
2019-05-21T05:17:42.603Z,32.48
2019-05-21T05:20:12.101Z,33.02
2019-05-21T05:22:40.868Z,33.05
2019-05-21T05:25:09.715Z,34.73
2019-05-21T05:27:38.195Z,31.48
2019-05-21T05:30:07.992Z,37.85
2019-05-21T05:32:36.767Z,40.60
2019-05-21T05:35:06.514Z,38.75
2019-05-21T05:37:43.235Z,40.88
2019-05-21T05:40:09.849Z,44.55
2019-05-21T05:42:38.803Z,43.30
2019-05-21T05:45:08.782Z,43.40
2019-05-21T05:47:37.279Z,45.12
2019-05-21T05:50:09.348Z,49.98
2019-05-21T05:52:37.807Z,55.48
2019-05-21T05:55:07.897Z,47.83
2019-05-21T05:57:36.444Z,53.65
2019-05-21T06:00:09.019Z,52.98
2019-05-21T06:02:37.486Z,58.70
2019-05-21T06:05:06.765Z,56.13
2019-05-21T06:07:35.215Z,50.33
2019-05-21T06:10:05.278Z,59.93
2019-05-21T06:12:34.169Z,49.27
2019-05-21T06:15:03.214Z,52.78
2019-05-21T06:17:32.285Z,49.25
2019-05-21T06:20:00.797Z,40.65
2019-05-21T06:22:29.251Z,47.08
2019-05-21T06:24:58.032Z,44.50
2019-05-21T06:27:26.484Z,46.92
2019-05-21T06:29:54.941Z,37.58
2019-05-21T06:32:23.380Z,47.38
2019-05-21T06:34:52.096Z,38.92
2019-05-21T06:37:20.816Z,44.60
2019-05-21T06:39:49.534Z,43.52
2019-05-21T06:42:17.998Z,43.87
2019-05-21T06:44:46.463Z,41.60
2019-05-21T06:47:14.893Z,37.70
2019-05-21T06:49:43.356Z,41.37
2019-05-21T06:52:11.791Z,37.03
2019-05-21T06:54:40.515Z,40.48
2019-05-21T06:57:09.320Z,37.80
2019-05-21T06:59:37.791Z,38.42
2019-05-21T07:02:06.266Z,41.77
2019-05-21T07:04:34.790Z,36.95
2019-05-21T07:07:03.249Z,41.15
2019-05-21T07:09:31.766Z,36.90
2019-05-21T07:12:00.612Z,36.48
2019-05-21T07:14:29.120Z,41.28
2019-05-21T07:16:57.850Z,45.65
2019-05-21T07:19:26.579Z,49.00
2019-05-21T07:22:11.178Z,45.17
2019-05-21T07:24:28.159Z,41.98
2019-05-21T07:26:55.839Z,40.17
2019-05-21T07:29:24.555Z,36.88
2019-05-21T07:31:52.999Z,43.90
2019-05-21T07:34:21.741Z,41.75
2019-05-21T07:36:50.543Z,39.78
2019-05-21T07:39:19.026Z,37.93
2019-05-21T07:41:47.814Z,41.13
2019-05-21T07:44:16.279Z,41.35
2019-05-21T07:46:44.728Z,38.25
2019-05-21T07:49:13.288Z,41.98
2019-05-21T07:51:41.766Z,37.05
2019-05-21T07:54:10.550Z,36.83
2019-05-21T07:56:39.026Z,38.53
2019-05-21T07:59:07.797Z,33.48
2019-05-21T08:01:36.687Z,28.90
2019-05-21T08:04:05.481Z,30.77
2019-05-21T08:06:34.185Z,28.35
2019-05-21T08:09:13.543Z,25.60
2019-05-21T08:11:34.358Z,31.45
2019-05-21T08:14:02.826Z,27.82
2019-05-21T08:16:31.276Z,38.25
2019-05-21T08:18:59.752Z,44.90
2019-05-21T08:21:28.739Z,36.58
2019-05-21T08:23:57.527Z,38.42
2019-05-21T08:26:25.975Z,36.80
2019-05-21T08:28:54.407Z,39.55
2019-05-21T08:31:23.119Z,34.75
2019-05-21T08:33:51.582Z,36.40
2019-05-21T08:36:20.349Z,39.42
2019-05-21T08:38:48.795Z,35.92
2019-05-21T08:41:17.234Z,35.08
2019-05-21T08:43:45.999Z,32.17
2019-05-21T08:46:14.442Z,31.52
2019-05-21T08:48:43.001Z,31.17
2019-05-21T08:51:11.526Z,31.95
2019-05-21T08:53:40.460Z,32.38
2019-05-21T08:56:08.955Z,28.00
2019-05-21T08:58:37.482Z,29.40
2019-05-21T09:01:06.012Z,30.52
2019-05-21T09:03:34.451Z,23.38
2019-05-21T09:06:04.123Z,22.20
2019-05-21T09:08:33.059Z,24.50
2019-05-21T09:11:01.982Z,25.10
2019-05-21T09:13:31.243Z,27.10
2019-05-21T09:15:59.700Z,28.10
2019-05-21T09:18:28.420Z,25.82
2019-05-21T09:20:57.207Z,31.15
2019-05-21T09:23:25.996Z,30.77
2019-05-21T09:25:54.451Z,24.27
2019-05-21T09:28:23.160Z,27.40
2019-05-21T09:30:51.609Z,25.75
2019-05-21T09:33:20.053Z,26.40
2019-05-21T09:35:48.571Z,27.77
2019-05-21T09:38:17.585Z,23.83
2019-05-21T09:40:46.591Z,27.65
2019-05-21T09:43:15.284Z,26.07
2019-05-21T09:45:44.574Z,26.37
2019-05-21T09:48:15.272Z,27.70
2019-05-21T09:50:44.441Z,27.75
2019-05-21T09:53:13.314Z,28.60
2019-05-21T09:55:41.742Z,26.42
2019-05-21T09:58:12.315Z,26.12
2019-05-21T10:00:42.456Z,27.40
2019-05-21T10:03:18.483Z,26.27
2019-05-21T10:05:46.922Z,39.70
2019-05-21T10:08:15.760Z,28.83
2019-05-21T10:10:44.546Z,28.35
2019-05-21T10:13:13.250Z,37.00
2019-05-21T10:15:41.696Z,44.13
2019-05-21T10:18:10.146Z,31.05
2019-05-21T10:20:38.604Z,32.35
2019-05-21T10:23:07.500Z,33.20
2019-05-21T10:25:36.354Z,29.60
2019-05-21T10:28:04.903Z,27.67
2019-05-21T10:30:33.777Z,27.98
2019-05-21T10:33:02.267Z,22.52
2019-05-21T10:35:30.708Z,20.65
2019-05-21T10:37:59.485Z,19.05
2019-05-21T10:40:27.944Z,16.65
2019-05-21T10:42:56.388Z,16.37
2019-05-21T10:45:25.126Z,17.62
2019-05-21T10:47:53.575Z,14.98
2019-05-21T10:50:22.299Z,14.90
2019-05-21T10:52:51.088Z,15.70
2019-05-21T10:55:19.876Z,11.73
2019-05-21T10:57:48.319Z,12.73
2019-05-21T11:00:23.054Z,12.55
2019-05-21T11:02:52.796Z,12.37
2019-05-21T11:05:29.108Z,14.03
2019-05-21T11:08:21.779Z,15.10
2019-05-21T11:10:28.086Z,15.65
2019-05-21T11:12:56.953Z,16.35
2019-05-21T11:15:25.466Z,14.33
2019-05-21T11:18:09.937Z,23.35
2019-05-21T11:20:24.266Z,18.92
2019-05-21T11:22:52.713Z,19.75
2019-05-21T11:25:21.188Z,16.85
2019-05-21T11:27:49.715Z,17.73
2019-05-21T11:30:18.903Z,22.42
2019-05-21T11:32:48.088Z,16.87
2019-05-21T11:35:17.171Z,19.57
2019-05-21T11:37:47.764Z,24.85
2019-05-21T11:40:17.227Z,18.77
2019-05-21T11:42:45.715Z,20.70
2019-05-21T11:45:29.466Z,21.82
2019-05-21T11:47:44.867Z,19.23
2019-05-21T11:50:15.319Z,21.27
2019-05-21T11:52:43.828Z,20.17
2019-05-21T11:55:12.630Z,18.62
2019-05-21T11:57:41.083Z,21.23
2019-05-21T12:00:10.478Z,23.47
2019-05-21T12:02:38.986Z,27.17
2019-05-21T12:05:08.267Z,21.42
2019-05-21T12:07:37.167Z,24.30
2019-05-21T12:10:07.881Z,20.72
2019-05-21T12:12:36.374Z,20.10
2019-05-21T12:15:09.116Z,16.05
2019-05-21T12:20:07.190Z,16.02
2019-05-21T12:22:35.938Z,23.07
2019-05-21T12:25:05.957Z,14.20
2019-05-21T12:27:34.391Z,11.68
2019-05-21T12:30:04.453Z,16.15
2019-05-21T12:32:33.346Z,10.80
2019-05-21T12:35:01.931Z,12.07
2019-05-21T12:37:30.558Z,11.53
2019-05-21T12:39:59.600Z,11.20
2019-05-21T12:42:28.392Z,13.75
2019-05-21T12:44:56.858Z,11.97
2019-05-21T12:47:25.378Z,12.75
2019-05-21T12:49:53.839Z,9.88
2019-05-21T12:52:22.272Z,14.05
2019-05-21T12:54:50.778Z,10.38
2019-05-21T12:57:19.265Z,12.45
2019-05-21T12:59:47.770Z,12.58
2019-05-21T13:02:16.547Z,11.68
2019-05-21T13:04:45.246Z,13.40
2019-05-21T13:07:13.794Z,21.68
2019-05-21T13:09:42.294Z,14.35
2019-05-21T13:12:10.746Z,18.52
2019-05-21T13:14:39.190Z,17.40
2019-05-21T13:17:07.639Z,14.03
2019-05-21T13:19:36.426Z,18.48
2019-05-21T13:22:05.245Z,14.80
2019-05-21T13:24:34.110Z,19.40
2019-05-21T13:27:02.907Z,19.60
2019-05-21T13:29:31.442Z,25.82
2019-05-21T13:31:59.963Z,17.40
2019-05-21T13:34:28.746Z,19.42
2019-05-21T13:36:57.957Z,23.98
2019-05-21T13:39:26.484Z,21.52
2019-05-21T13:41:55.003Z,17.10
2019-05-21T13:44:23.438Z,18.35
2019-05-21T13:46:51.937Z,20.57
2019-05-21T13:49:20.423Z,22.67
2019-05-21T13:51:48.866Z,23.45
2019-05-21T13:54:17.307Z,23.00
2019-05-21T13:56:45.820Z,24.23
2019-05-21T13:59:14.277Z,26.10
2019-05-21T14:01:42.735Z,19.67
2019-05-21T14:04:11.360Z,23.27
2019-05-21T14:06:39.790Z,22.55
2019-05-21T14:09:09.451Z,24.02
2019-05-21T14:11:38.056Z,23.60
2019-05-21T14:14:07.014Z,25.02
2019-05-21T14:16:35.457Z,20.25
2019-05-21T14:19:04.049Z,16.93
2019-05-21T14:21:32.492Z,16.45
2019-05-21T14:24:00.970Z,19.45
2019-05-21T14:26:29.851Z,19.20
2019-05-21T14:28:58.325Z,17.12
2019-05-21T14:31:26.770Z,16.95
2019-05-21T14:33:55.725Z,19.20
2019-05-21T14:36:24.230Z,25.82
2019-05-21T14:38:53.010Z,24.27
2019-05-21T14:41:21.466Z,20.97
2019-05-21T14:43:49.932Z,22.30
2019-05-21T14:46:18.433Z,23.65
2019-05-21T14:48:47.184Z,24.40
2019-05-21T14:51:16.690Z,22.15
2019-05-21T14:53:45.478Z,29.25
2019-05-21T14:56:14.290Z,22.62
2019-05-21T14:58:42.727Z,24.63
2019-05-21T15:01:11.181Z,24.32
2019-05-21T15:03:40.393Z,22.85
2019-05-21T15:06:08.845Z,23.90
2019-05-21T15:08:37.302Z,30.02
2019-05-21T15:11:05.750Z,27.55
2019-05-21T15:13:34.659Z,29.00
2019-05-21T15:16:03.373Z,25.82
2019-05-21T15:18:31.830Z,31.93
2019-05-21T15:21:01.935Z,31.12
2019-05-21T15:23:30.442Z,28.27
2019-05-21T15:25:58.979Z,31.37
2019-05-21T15:28:27.742Z,30.15
2019-05-21T15:30:56.489Z,31.25
2019-05-21T15:33:24.935Z,35.92
2019-05-21T15:35:53.769Z,36.70
2019-05-21T15:38:22.548Z,38.63
2019-05-21T15:41:08.489Z,35.17
2019-05-21T15:43:21.232Z,31.25
2019-05-21T15:45:49.930Z,32.73
2019-05-21T15:48:18.394Z,24.77
2019-05-21T15:50:46.826Z,26.57
2019-05-21T15:53:15.286Z,27.32
2019-05-21T15:55:43.744Z,27.13
2019-05-21T15:58:12.194Z,27.40
2019-05-21T16:00:40.819Z,33.05
2019-05-21T16:03:09.609Z,34.45
2019-05-21T16:05:38.175Z,35.08
2019-05-21T16:08:06.618Z,36.55
2019-05-21T16:10:35.073Z,29.85
2019-05-21T16:13:03.524Z,33.30
2019-05-21T16:15:32.432Z,32.95
2019-05-21T16:18:01.219Z,34.03
2019-05-21T16:20:29.670Z,37.90
2019-05-21T16:22:58.482Z,32.78
2019-05-21T16:25:27.214Z,33.67
2019-05-21T16:27:55.724Z,26.93
2019-05-21T16:30:24.246Z,31.52
2019-05-21T16:32:52.686Z,32.40
2019-05-21T16:35:21.410Z,30.55
2019-05-21T16:37:49.857Z,26.35
2019-05-21T16:40:19.020Z,31.07
2019-05-21T16:42:47.873Z,33.75
2019-05-21T16:45:17.795Z,30.72
2019-05-21T16:47:46.944Z,34.55
2019-05-21T16:50:16.280Z,36.35
2019-05-21T16:52:44.981Z,43.95
2019-05-21T16:55:13.508Z,45.20
2019-05-21T16:57:42.223Z,38.78
2019-05-21T17:00:13.787Z,41.05
2019-05-21T17:02:42.800Z,47.40
2019-05-21T17:05:11.622Z,37.40
2019-05-21T17:07:40.372Z,45.88
2019-05-21T17:10:09.770Z,42.33
2019-05-21T17:12:38.288Z,42.43
2019-05-21T17:15:08.239Z,43.85
2019-05-21T17:17:36.957Z,44.08
2019-05-21T17:20:09.500Z,43.48
2019-05-21T17:22:38.905Z,50.35
2019-05-21T17:25:08.280Z,45.50
2019-05-21T17:27:37.131Z,48.90
2019-05-21T17:30:10.537Z,53.13
2019-05-21T17:32:39.309Z,44.88
2019-05-21T17:35:09.756Z,47.78
2019-05-21T17:37:38.200Z,43.45
2019-05-21T17:40:07.852Z,43.10
2019-05-21T17:42:36.607Z,44.42
2019-05-21T17:45:08.122Z,42.08
2019-05-21T17:47:36.586Z,43.55
2019-05-21T17:50:07.892Z,41.98
2019-05-21T17:52:36.445Z,41.05
2019-05-21T17:55:07.206Z,43.55
2019-05-21T17:57:35.737Z,43.00
2019-05-21T18:00:07.477Z,46.60
2019-05-21T18:02:36.501Z,44.63
2019-05-21T18:05:07.844Z,47.43
2019-05-21T18:07:37.598Z,48.00
2019-05-21T18:10:08.034Z,48.78
2019-05-21T18:12:36.935Z,42.27
2019-05-21T18:15:10.278Z,47.78
2019-05-21T18:17:39.628Z,43.17
2019-05-21T18:20:09.339Z,50.60
2019-05-21T18:22:39.761Z,49.90
2019-05-21T18:25:09.483Z,48.95
2019-05-21T18:27:37.976Z,48.85
2019-05-21T18:30:08.866Z,64.67
2019-05-21T18:32:37.686Z,66.77
2019-05-21T18:35:07.796Z,70.35
2019-05-21T18:37:37.731Z,72.42
2019-05-21T18:40:10.316Z,70.52
2019-05-21T18:42:38.755Z,69.82
2019-05-21T18:45:08.358Z,68.97
2019-05-21T18:47:37.170Z,76.42
2019-05-21T18:50:09.487Z,70.45
2019-05-21T18:52:38.324Z,75.85
2019-05-21T18:55:07.944Z,75.08
2019-05-21T18:57:36.450Z,79.12
2019-05-21T19:00:06.934Z,71.33
2019-05-21T19:02:35.543Z,71.67
2019-05-21T19:05:05.243Z,67.08
2019-05-21T19:07:34.035Z,68.78
2019-05-21T19:10:02.555Z,71.67
2019-05-21T19:12:38.024Z,68.95
2019-05-21T19:15:01.801Z,76.07
2019-05-21T19:17:35.610Z,73.05
2019-05-21T19:20:01.494Z,66.65
2019-05-21T19:22:30.178Z,78.35
2019-05-21T19:24:59.028Z,82.62
2019-05-21T19:27:27.534Z,67.92
2019-05-21T19:29:55.995Z,74.20
2019-05-21T19:32:24.470Z,66.47
2019-05-21T19:34:52.998Z,67.70
2019-05-21T19:37:21.724Z,71.40
2019-05-21T19:39:50.335Z,63.52
2019-05-21T19:42:19.425Z,60.83
2019-05-21T19:44:48.206Z,53.95
2019-05-21T19:47:16.646Z,56.42
2019-05-21T19:49:45.392Z,57.23
2019-05-21T19:52:14.163Z,50.75
2019-05-21T19:54:42.950Z,51.92
2019-05-21T19:57:12.355Z,47.33
2019-05-21T19:59:40.875Z,56.60
2019-05-21T20:02:11.046Z,47.62
2019-05-21T20:04:40.563Z,45.98
2019-05-21T20:07:11.433Z,41.20
2019-05-21T20:09:39.944Z,39.67
2019-05-21T20:12:09.747Z,47.10
2019-05-21T20:14:38.435Z,44.33
2019-05-21T20:17:08.589Z,46.85
2019-05-21T20:19:37.152Z,57.62
2019-05-21T20:22:06.854Z,46.48
2019-05-21T20:24:35.955Z,51.73
2019-05-21T20:27:05.528Z,67.97
2019-05-21T20:29:34.490Z,60.10
2019-05-21T20:32:03.202Z,66.15
2019-05-21T20:34:32.285Z,62.73
2019-05-21T20:37:00.866Z,63.58
2019-05-21T20:39:30.826Z,71.00
2019-05-21T20:41:59.649Z,70.47
2019-05-21T20:44:28.479Z,66.05
2019-05-21T20:46:57.665Z,70.12
2019-05-21T20:49:26.763Z,76.33
2019-05-21T20:51:56.544Z,63.70
2019-05-21T20:54:26.212Z,64.55
2019-05-21T20:56:55.362Z,63.98
2019-05-21T20:59:24.171Z,65.08
2019-05-21T21:01:52.819Z,73.05
2019-05-21T21:04:22.055Z,68.17
2019-05-21T21:06:50.575Z,71.65
2019-05-21T21:09:19.266Z,65.65
2019-05-21T21:11:47.753Z,72.22
2019-05-21T21:14:18.574Z,69.30
2019-05-21T21:16:47.814Z,71.30
2019-05-21T21:19:16.516Z,74.92
2019-05-21T21:21:45.226Z,74.72
2019-05-21T21:24:13.688Z,64.10
2019-05-21T21:26:42.346Z,79.20
2019-05-21T21:29:10.888Z,82.78
2019-05-21T21:31:39.424Z,83.40
2019-05-21T21:34:08.066Z,89.97
2019-05-21T21:36:37.409Z,88.05
2019-05-21T21:39:08.659Z,83.05
2019-05-21T21:41:38.941Z,79.37
2019-05-21T21:44:08.091Z,80.28
2019-05-21T21:46:37.603Z,72.78
2019-05-21T21:49:06.387Z,85.17
2019-05-21T21:51:35.186Z,77.92
2019-05-21T21:54:04.659Z,73.52
2019-05-21T21:56:33.112Z,77.53
2019-05-21T21:59:01.602Z,83.52
2019-05-21T22:01:51.870Z,78.50
2019-05-21T22:04:23.731Z,77.20
2019-05-21T22:06:53.388Z,77.78
2019-05-21T22:09:23.850Z,78.22
2019-05-21T22:11:53.472Z,79.50
2019-05-21T22:14:22.535Z,74.45
2019-05-21T22:16:52.018Z,72.00
2019-05-21T22:19:21.454Z,72.27
2019-05-21T22:21:51.643Z,93.55
2019-05-21T22:24:20.166Z,77.72
2019-05-21T22:26:49.460Z,80.92
2019-05-21T22:29:18.072Z,82.42
2019-05-21T22:31:47.103Z,80.05
2019-05-21T22:34:16.055Z,77.58
2019-05-21T22:36:44.500Z,79.58
2019-05-21T22:39:18.095Z,85.12
2019-05-21T22:41:46.979Z,83.50
2019-05-21T22:44:15.751Z,83.47
2019-05-21T22:46:45.361Z,85.80
2019-05-21T22:49:13.805Z,94.97
2019-05-21T22:51:42.262Z,95.75
2019-05-21T22:54:10.732Z,101.67
2019-05-21T22:56:39.223Z,93.65
2019-05-21T22:59:07.738Z,96.55
2019-05-21T23:01:36.729Z,86.80
2019-05-21T23:04:05.930Z,94.20
2019-05-21T23:06:34.391Z,92.80
2019-05-21T23:09:03.099Z,97.08
2019-05-21T23:11:31.722Z,87.40
2019-05-21T23:14:00.169Z,95.07
2019-05-21T23:16:28.823Z,85.40
2019-05-21T23:18:58.068Z,106.63
2019-05-21T23:21:26.610Z,104.05
2019-05-21T23:23:56.055Z,101.78
2019-05-21T23:26:26.376Z,106.63
2019-05-21T23:28:54.828Z,111.97
2019-05-21T23:31:23.569Z,102.87
2019-05-21T23:33:52.224Z,103.45
2019-05-21T23:36:21.314Z,104.95
2019-05-21T23:38:51.302Z,100.00
2019-05-21T23:41:21.692Z,105.05
2019-05-21T23:43:50.199Z,102.82
2019-05-21T23:46:19.499Z,95.70
2019-05-21T23:48:48.585Z,116.65
2019-05-21T23:51:17.303Z,111.60
2019-05-21T23:53:45.737Z,110.78
2019-05-21T23:56:14.638Z,92.72
2019-05-21T23:58:43.417Z,108.35
